Time,TemperatureF,DewpointF,PressureIn,WindDirection,WindDirectionDegrees,WindSpeedMPH,WindSpeedGustMPH,Humidity,HourlyPrecipIn,Conditions,Clouds,dailyrainin,SoftwareType,DateUTC
2013-05-21 00:00:00,65.3,57.9,29.93,North,-999,0.0,0.0,77,0.00,,,-99.99,WeatherLink 5.5,2013-05-21 04:00:00,
2013-05-21 00:05:00,65.2,57.8,29.93,North,-999,0.0,0.0,77,0.00,,,-99.99,WeatherLink 5.5,2013-05-21 04:05:00,
2013-05-21 00:10:00,65.2,57.8,29.93,North,-999,0.0,0.0,77,0.00,,,-99.99,WeatherLink 5.5,2013-05-21 04:10:00,
2013-05-21 00:15:00,65.2,57.8,29.93,North,-999,0.0,0.0,77,0.00,,,-99.99,WeatherLink 5.5,2013-05-21 04:15:00,
2013-05-21 00:20:00,65.0,58.0,29.94,North,-999,0.0,0.0,78,0.00,,,-99.99,WeatherLink 5.5,2013-05-21 04:20:00,
2013-05-21 00:25:00,64.9,57.9,29.94,North,-999,0.0,0.0,78,0.00,,,-99.99,WeatherLink 5.5,2013-05-21 04:25:00,
2013-05-21 00:30:00,64.9,57.9,29.94,North,-999,0.0,0.0,78,0.00,,,-99.99,WeatherLink 5.5,2013-05-21 04:30:00,
2013-05-21 00:35:00,64.5,57.5,29.93,North,-999,0.0,0.0,78,0.00,,,-99.99,WeatherLink 5.5,2013-05-21 04:35:00,
2013-05-21 00:40:00,64.4,57.4,29.93,North,-999,0.0,0.0,78,0.00,,,-99.99,WeatherLink 5.5,2013-05-21 04:40:00,
2013-05-21 00:45:00,64.4,57.4,29.93,North,-999,0.0,0.0,78,0.00,,,-99.99,WeatherLink 5.5,2013-05-21 04:45:00,
2013-05-21 00:50:00,63.9,56.9,29.93,North,-999,0.0,0.0,78,0.00,,,-99.99,WeatherLink 5.5,2013-05-21 04:50:00,
2013-05-21 00:55:00,63.7,57.1,29.93,North,-999,0.0,0.0,79,0.00,,,-99.99,WeatherLink 5.5,2013-05-21 04:55:00,
2013-05-21 01:00:00,63.7,57.1,29.93,North,-999,0.0,0.0,79,0.00,,,-99.99,WeatherLink 5.5,2013-05-21 05:00:00,
2013-05-21 01:05:00,63.6,57.0,29.93,North,-999,0.0,0.0,79,0.00,,,-99.99,WeatherLink 5.5,2013-05-21 05:05:00,
2013-05-21 01:10:00,63.4,57.1,29.93,North,-999,0.0,0.0,80,0.00,,,-99.99,WeatherLink 5.5,2013-05-21 05:10:00,
2013-05-21 01:15:00,63.4,57.1,29.93,North,-999,0.0,0.0,80,0.00,,,-99.99,WeatherLink 5.5,2013-05-21 05:15:00,
2013-05-21 01:20:00,62.9,56.6,29.93,North,-999,0.0,0.0,80,0.00,,,-99.99,WeatherLink 5.5,2013-05-21 05:20:00,
2013-05-21 01:25:00,62.8,56.5,29.93,North,-999,0.0,0.0,80,0.00,,,-99.99,WeatherLink 5.5,2013-05-21 05:25:00,
2013-05-21 01:30:00,62.8,56.5,29.93,North,-999,0.0,0.0,80,0.00,,,-99.99,WeatherLink 5.5,2013-05-21 05:30:00,
2013-05-21 01:35:00,62.6,56.7,29.93,North,-999,0.0,0.0,81,0.00,,,-99.99,WeatherLink 5.5,2013-05-21 05:35:00,
2013-05-21 01:40:00,62.6,56.7,29.93,North,-999,0.0,0.0,81,0.00,,,-99.99,WeatherLink 5.5,2013-05-21 05:40:00,
2013-05-21 01:45:00,62.6,56.7,29.93,North,-999,0.0,0.0,81,0.00,,,-99.99,WeatherLink 5.5,2013-05-21 05:45:00,
2013-05-21 01:50:00,62.3,56.4,29.92,North,-999,0.0,0.0,81,0.00,,,-99.99,WeatherLink 5.5,2013-05-21 05:50:00,
2013-05-21 01:55:00,62.1,56.2,29.92,North,-999,0.0,0.0,81,0.00,,,-99.99,WeatherLink 5.5,2013-05-21 05:55:00,
2013-05-21 02:00:00,62.1,56.2,29.92,North,-999,0.0,0.0,81,0.00,,,-99.99,WeatherLink 5.5,2013-05-21 06:00:00,
2013-05-21 02:05:00,61.8,56.2,29.92,North,-999,0.0,0.0,82,0.00,,,-99.99,WeatherLink 5.5,2013-05-21 06:05:00,
2013-05-21 02:10:00,61.8,56.2,29.92,North,-999,0.0,0.0,82,0.00,,,-99.99,WeatherLink 5.5,2013-05-21 06:10:00,
2013-05-21 02:15:00,61.7,56.1,29.92,North,-999,0.0,0.0,82,0.00,,,-99.99,WeatherLink 5.5,2013-05-21 06:15:00,
2013-05-21 02:16:00,61.8,56.2,29.92,North,-999,0.0,0.0,82,0.00,,,-99.99,WeatherLink 5.5,2013-05-21 06:16:00,
2013-05-21 02:20:00,61.5,56.0,29.92,North,-999,0.0,0.0,82,0.00,,,-99.99,WeatherLink 5.5,2013-05-21 06:20:00,
2013-05-21 02:25:00,61.3,55.8,29.92,North,-999,0.0,0.0,82,0.00,,,-99.99,WeatherLink 5.5,2013-05-21 06:25:00,
2013-05-21 02:30:00,61.3,55.8,29.92,North,-999,0.0,0.0,82,0.00,,,-99.99,WeatherLink 5.5,2013-05-21 06:30:00,
2013-05-21 02:35:00,61.0,55.5,29.91,North,-999,0.0,0.0,82,0.00,,,-99.99,WeatherLink 5.5,2013-05-21 06:35:00,
2013-05-21 02:40:00,60.9,55.4,29.91,North,-999,0.0,0.0,82,0.00,,,-99.99,WeatherLink 5.5,2013-05-21 06:40:00,
2013-05-21 02:45:00,60.9,55.4,29.91,North,-999,0.0,0.0,82,0.00,,,-99.99,WeatherLink 5.5,2013-05-21 06:45:00,
2013-05-21 02:50:00,60.7,55.2,29.90,North,-999,0.0,0.0,82,0.00,,,-99.99,WeatherLink 5.5,2013-05-21 06:50:00,
2013-05-21 02:55:00,60.6,55.1,29.90,North,-999,0.0,0.0,82,0.00,,,-99.99,WeatherLink 5.5,2013-05-21 06:55:00,
2013-05-21 03:00:00,60.6,55.1,29.90,North,-999,0.0,0.0,82,0.00,,,-99.99,WeatherLink 5.5,2013-05-21 07:00:00,
2013-05-21 03:05:00,60.4,55.2,29.90,North,-999,0.0,0.0,83,0.00,,,-99.99,WeatherLink 5.5,2013-05-21 07:05:00,
2013-05-21 03:10:00,60.4,55.2,29.90,North,-999,0.0,0.0,83,0.00,,,-99.99,WeatherLink 5.5,2013-05-21 07:10:00,
2013-05-21 03:15:00,60.4,55.2,29.90,North,-999,0.0,0.0,83,0.00,,,-99.99,WeatherLink 5.5,2013-05-21 07:15:00,
2013-05-21 03:20:00,60.2,55.0,29.89,North,-999,0.0,0.0,83,0.00,,,-99.99,WeatherLink 5.5,2013-05-21 07:20:00,
2013-05-21 03:25:00,60.1,54.9,29.89,North,-999,0.0,0.0,83,0.00,,,-99.99,WeatherLink 5.5,2013-05-21 07:25:00,
2013-05-21 03:30:00,60.1,54.9,29.89,North,-999,0.0,0.0,83,0.00,,,-99.99,WeatherLink 5.5,2013-05-21 07:30:00,
2013-05-21 03:35:00,59.9,54.7,29.89,North,-999,0.0,0.0,83,0.00,,,-99.99,WeatherLink 5.5,2013-05-21 07:35:00,
2013-05-21 03:40:00,60.1,54.9,29.89,North,-999,0.0,0.0,83,0.00,,,-99.99,WeatherLink 5.5,2013-05-21 07:40:00,
2013-05-21 03:45:00,60.1,54.9,29.89,North,-999,0.0,0.0,83,0.00,,,-99.99,WeatherLink 5.5,2013-05-21 07:45:00,
2013-05-21 03:50:00,59.8,54.6,29.89,North,-999,0.0,0.0,83,0.00,,,-99.99,WeatherLink 5.5,2013-05-21 07:50:00,
2013-05-21 03:55:00,59.6,54.4,29.89,North,-999,0.0,0.0,83,0.00,,,-99.99,WeatherLink 5.5,2013-05-21 07:55:00,
2013-05-21 04:00:00,59.6,54.4,29.89,North,-999,0.0,0.0,83,0.00,,,-99.99,WeatherLink 5.5,2013-05-21 08:00:00,
2013-05-21 04:05:00,59.3,54.1,29.90,North,-999,0.0,0.0,83,0.00,,,-99.99,WeatherLink 5.5,2013-05-21 08:05:00,
2013-05-21 04:10:00,59.2,54.0,29.90,North,-999,0.0,0.0,83,0.00,,,-99.99,WeatherLink 5.5,2013-05-21 08:10:00,
2013-05-21 04:15:00,59.2,54.0,29.90,North,-999,0.0,0.0,83,0.00,,,-99.99,WeatherLink 5.5,2013-05-21 08:15:00,
2013-05-21 04:20:00,59.0,53.8,29.90,North,-999,0.0,0.0,83,0.00,,,-99.99,WeatherLink 5.5,2013-05-21 08:20:00,
2013-05-21 04:25:00,58.9,53.7,29.90,North,-999,0.0,0.0,83,0.00,,,-99.99,WeatherLink 5.5,2013-05-21 08:25:00,
2013-05-21 04:30:00,58.9,53.7,29.90,North,-999,0.0,0.0,83,0.00,,,-99.99,WeatherLink 5.5,2013-05-21 08:30:00,
2013-05-21 04:35:00,58.7,53.5,29.90,North,-999,0.0,0.0,83,0.00,,,-99.99,WeatherLink 5.5,2013-05-21 08:35:00,
2013-05-21 04:40:00,58.6,53.5,29.90,North,-999,0.0,0.0,83,0.00,,,-99.99,WeatherLink 5.5,2013-05-21 08:40:00,
2013-05-21 04:45:00,58.6,53.5,29.90,North,-999,0.0,0.0,83,0.00,,,-99.99,WeatherLink 5.5,2013-05-21 08:45:00,
2013-05-21 04:50:00,58.4,53.3,29.90,North,-999,0.0,0.0,83,0.00,,,-99.99,WeatherLink 5.5,2013-05-21 08:50:00,
2013-05-21 04:55:00,58.4,53.3,29.90,North,-999,0.0,0.0,83,0.00,,,-99.99,WeatherLink 5.5,2013-05-21 08:55:00,
2013-05-21 05:00:00,58.4,53.3,29.90,North,-999,0.0,0.0,83,0.00,,,-99.99,WeatherLink 5.5,2013-05-21 09:00:00,
2013-05-21 05:05:00,58.3,53.5,29.91,North,-999,0.0,0.0,84,0.00,,,-99.99,WeatherLink 5.5,2013-05-21 09:05:00,
2013-05-21 05:10:00,58.3,53.5,29.91,North,-999,0.0,0.0,84,0.00,,,-99.99,WeatherLink 5.5,2013-05-21 09:10:00,
2013-05-21 05:15:00,58.3,53.5,29.91,North,-999,0.0,0.0,84,0.00,,,-99.99,WeatherLink 5.5,2013-05-21 09:15:00,
2013-05-21 05:20:00,58.1,53.3,29.92,North,-999,0.0,0.0,84,0.00,,,-99.99,WeatherLink 5.5,2013-05-21 09:20:00,
2013-05-21 05:25:00,58.0,53.2,29.92,North,-999,0.0,0.0,84,0.00,,,-99.99,WeatherLink 5.5,2013-05-21 09:25:00,
2013-05-21 05:30:00,58.0,53.2,29.92,North,-999,0.0,0.0,84,0.00,,,-99.99,WeatherLink 5.5,2013-05-21 09:30:00,
2013-05-21 05:35:00,57.7,52.9,29.91,North,-999,0.0,0.0,84,0.00,,,-99.99,WeatherLink 5.5,2013-05-21 09:35:00,
2013-05-21 05:40:00,57.7,52.9,29.91,North,-999,0.0,0.0,84,0.00,,,-99.99,WeatherLink 5.5,2013-05-21 09:40:00,
2013-05-21 05:45:00,57.7,52.9,29.91,North,-999,0.0,0.0,84,0.00,,,-99.99,WeatherLink 5.5,2013-05-21 09:45:00,
2013-05-21 05:50:00,57.8,53.0,29.90,North,-999,0.0,0.0,84,0.00,,,-99.99,WeatherLink 5.5,2013-05-21 09:50:00,
2013-05-21 05:55:00,58.0,53.2,29.90,North,-999,0.0,0.0,84,0.00,,,-99.99,WeatherLink 5.5,2013-05-21 09:55:00,
2013-05-21 06:00:00,58.0,53.2,29.90,North,-999,0.0,0.0,84,0.00,,,-99.99,WeatherLink 5.5,2013-05-21 10:00:00,
2013-05-21 06:05:00,58.1,53.3,29.91,North,-999,0.0,0.0,84,0.00,,,-99.99,WeatherLink 5.5,2013-05-21 10:05:00,
2013-05-21 06:10:00,58.3,53.5,29.91,North,-999,0.0,0.0,84,0.00,,,-99.99,WeatherLink 5.5,2013-05-21 10:10:00,
2013-05-21 06:15:00,58.3,53.5,29.91,North,-999,0.0,0.0,84,0.00,,,-99.99,WeatherLink 5.5,2013-05-21 10:15:00,
2013-05-21 06:20:00,58.6,53.8,29.92,North,-999,0.0,0.0,84,0.00,,,-99.99,WeatherLink 5.5,2013-05-21 10:20:00,
2013-05-21 06:25:00,58.7,53.9,29.92,North,-999,0.0,0.0,84,0.00,,,-99.99,WeatherLink 5.5,2013-05-21 10:25:00,
2013-05-21 06:30:00,58.7,53.9,29.92,North,-999,0.0,0.0,84,0.00,,,-99.99,WeatherLink 5.5,2013-05-21 10:30:00,
2013-05-21 06:35:00,59.0,54.5,29.92,North,-999,0.0,0.0,85,0.00,,,-99.99,WeatherLink 5.5,2013-05-21 10:35:00,
2013-05-21 06:40:00,59.3,54.8,29.92,North,-999,0.0,0.0,85,0.00,,,-99.99,WeatherLink 5.5,2013-05-21 10:40:00,
2013-05-21 06:45:00,59.3,54.8,29.92,North,-999,0.0,0.0,85,0.00,,,-99.99,WeatherLink 5.5,2013-05-21 10:45:00,
2013-05-21 06:50:00,59.9,55.4,29.91,North,-999,0.0,0.0,85,0.00,,,-99.99,WeatherLink 5.5,2013-05-21 10:50:00,
2013-05-21 06:55:00,60.2,55.7,29.91,NE,45,0.0,2.0,85,0.00,,,-99.99,WeatherLink 5.5,2013-05-21 10:55:00,
2013-05-21 07:00:00,60.2,55.7,29.91,NE,45,0.0,2.0,85,0.00,,,-99.99,WeatherLink 5.5,2013-05-21 11:00:00,
2013-05-21 07:05:00,60.7,56.2,29.91,NE,45,0.0,2.0,85,0.00,,,-99.99,WeatherLink 5.5,2013-05-21 11:05:00,
2013-05-21 07:10:00,61.0,56.5,29.91,NE,45,1.0,6.0,85,0.00,,,-99.99,WeatherLink 5.5,2013-05-21 11:10:00,
2013-05-21 07:15:00,61.0,56.5,29.91,NE,45,1.0,6.0,85,0.00,,,-99.99,WeatherLink 5.5,2013-05-21 11:15:00,
2013-05-21 07:20:00,60.7,55.8,29.90,NE,45,3.0,9.0,84,0.00,,,-99.99,WeatherLink 5.5,2013-05-21 11:20:00,
2013-05-21 07:25:00,60.7,55.8,29.90,NE,45,0.0,1.0,84,0.00,,,-99.99,WeatherLink 5.5,2013-05-21 11:25:00,
2013-05-21 07:30:00,60.7,55.8,29.90,NE,45,0.0,1.0,84,0.00,,,-99.99,WeatherLink 5.5,2013-05-21 11:30:00,
2013-05-21 07:35:00,60.7,55.8,29.89,NE,45,2.0,6.0,84,0.00,,,-99.99,WeatherLink 5.5,2013-05-21 11:35:00,
2013-05-21 07:40:00,60.6,55.7,29.89,ENE,67,1.0,4.0,84,0.00,,,-99.99,WeatherLink 5.5,2013-05-21 11:40:00,
2013-05-21 07:45:00,60.6,55.7,29.89,ENE,67,1.0,4.0,84,0.00,,,-99.99,WeatherLink 5.5,2013-05-21 11:45:00,
2013-05-21 07:50:00,60.7,55.8,29.90,NNE,22,2.0,7.0,84,0.00,,,-99.99,WeatherLink 5.5,2013-05-21 11:50:00,
2013-05-21 07:55:00,60.9,56.0,29.90,North,-999,0.0,0.0,84,0.00,,,-99.99,WeatherLink 5.5,2013-05-21 11:55:00,
2013-05-21 08:00:00,60.9,56.0,29.90,North,-999,0.0,0.0,84,0.00,,,-99.99,WeatherLink 5.5,2013-05-21 12:00:00,
2013-05-21 08:05:00,61.0,56.1,29.92,NE,45,0.0,2.0,84,0.00,,,-99.99,WeatherLink 5.5,2013-05-21 12:05:00,
2013-05-21 08:10:00,61.0,56.1,29.92,NE,45,0.0,1.0,84,0.00,,,-99.99,WeatherLink 5.5,2013-05-21 12:10:00,
2013-05-21 08:15:00,61.0,56.1,29.92,NE,45,0.0,1.0,84,0.00,,,-99.99,WeatherLink 5.5,2013-05-21 12:15:00,
2013-05-21 08:20:00,61.2,56.0,29.92,NE,45,0.0,4.0,83,0.00,,,-99.99,WeatherLink 5.5,2013-05-21 12:20:00,
2013-05-21 08:25:00,61.2,56.0,29.92,NE,45,1.0,6.0,83,0.00,,,-99.99,WeatherLink 5.5,2013-05-21 12:25:00,
2013-05-21 08:30:00,61.2,56.0,29.92,NE,45,1.0,6.0,83,0.00,,,-99.99,WeatherLink 5.5,2013-05-21 12:30:00,
2013-05-21 08:35:00,61.2,56.0,29.92,North,-999,0.0,0.0,83,0.00,,,-99.99,WeatherLink 5.5,2013-05-21 12:35:00,
2013-05-21 08:40:00,61.2,56.0,29.92,ENE,67,0.0,2.0,83,0.00,,,-99.99,WeatherLink 5.5,2013-05-21 12:40:00,
2013-05-21 08:45:00,61.2,56.0,29.92,ENE,67,0.0,2.0,83,0.00,,,-99.99,WeatherLink 5.5,2013-05-21 12:45:00,
2013-05-21 08:50:00,61.3,56.1,29.92,ENE,67,1.0,6.0,83,0.00,,,-99.99,WeatherLink 5.5,2013-05-21 12:50:00,
2013-05-21 08:55:00,61.2,55.7,29.92,ENE,67,0.0,4.0,82,0.00,,,-99.99,WeatherLink 5.5,2013-05-21 12:55:00,
2013-05-21 09:00:00,61.2,55.7,29.92,ENE,67,0.0,4.0,82,0.00,,,-99.99,WeatherLink 5.5,2013-05-21 13:00:00,
2013-05-21 09:05:00,61.3,55.8,29.91,ENE,67,0.0,2.0,82,0.00,,,-99.99,WeatherLink 5.5,2013-05-21 13:05:00,
2013-05-21 09:10:00,61.2,55.7,29.91,ENE,67,0.0,2.0,82,0.00,,,-99.99,WeatherLink 5.5,2013-05-21 13:10:00,
2013-05-21 09:15:00,61.2,55.7,29.91,ENE,67,0.0,2.0,82,0.00,,,-99.99,WeatherLink 5.5,2013-05-21 13:15:00,
2013-05-21 09:20:00,61.8,56.2,29.91,North,-999,0.0,0.0,82,0.00,,,-99.99,WeatherLink 5.5,2013-05-21 13:20:00,
2013-05-21 09:25:00,61.8,56.2,29.91,ENE,67,0.0,1.0,82,0.00,,,-99.99,WeatherLink 5.5,2013-05-21 13:25:00,
2013-05-21 09:30:00,61.8,56.2,29.91,ENE,67,0.0,1.0,82,0.00,,,-99.99,WeatherLink 5.5,2013-05-21 13:30:00,
2013-05-21 09:35:00,62.1,56.5,29.91,ENE,67,0.0,2.0,82,0.00,,,-99.99,WeatherLink 5.5,2013-05-21 13:35:00,
2013-05-21 09:40:00,62.4,56.8,29.91,ENE,67,0.0,1.0,82,0.00,,,-99.99,WeatherLink 5.5,2013-05-21 13:40:00,
2013-05-21 09:45:00,62.4,56.8,29.91,ENE,67,0.0,1.0,82,0.00,,,-99.99,WeatherLink 5.5,2013-05-21 13:45:00,
2013-05-21 09:50:00,62.8,56.9,29.90,North,-999,0.0,0.0,81,0.00,,,-99.99,WeatherLink 5.5,2013-05-21 13:50:00,
2013-05-21 09:55:00,63.1,56.8,29.90,North,-999,0.0,0.0,80,0.00,,,-99.99,WeatherLink 5.5,2013-05-21 13:55:00,
2013-05-21 10:00:00,63.1,56.8,29.90,North,-999,0.0,0.0,80,0.00,,,-99.99,WeatherLink 5.5,2013-05-21 14:00:00,
2013-05-21 10:05:00,63.2,56.6,29.90,ENE,67,0.0,1.0,79,0.00,,,-99.99,WeatherLink 5.5,2013-05-21 14:05:00,
2013-05-21 10:10:00,63.6,56.6,29.90,ENE,67,0.0,4.0,78,0.00,,,-99.99,WeatherLink 5.5,2013-05-21 14:10:00,
2013-05-21 10:15:00,63.6,56.6,29.90,ENE,67,0.0,4.0,78,0.00,,,-99.99,WeatherLink 5.5,2013-05-21 14:15:00,
2013-05-21 10:20:00,64.0,56.3,29.89,ENE,67,2.0,7.0,76,0.00,,,-99.99,WeatherLink 5.5,2013-05-21 14:20:00,
2013-05-21 10:25:00,64.4,57.0,29.89,ENE,67,0.0,1.0,77,0.00,,,-99.99,WeatherLink 5.5,2013-05-21 14:25:00,
2013-05-21 10:30:00,64.4,57.0,29.89,ENE,67,0.0,1.0,77,0.00,,,-99.99,WeatherLink 5.5,2013-05-21 14:30:00,
2013-05-21 10:35:00,65.7,57.2,29.88,ENE,67,0.0,2.0,74,0.00,,,-99.99,WeatherLink 5.5,2013-05-21 14:35:00,
2013-05-21 10:40:00,65.8,57.3,29.88,ENE,67,0.0,2.0,74,0.00,,,-99.99,WeatherLink 5.5,2013-05-21 14:40:00,
2013-05-21 10:45:00,65.8,57.3,29.88,ENE,67,0.0,2.0,74,0.00,,,-99.99,WeatherLink 5.5,2013-05-21 14:45:00,
2013-05-21 10:50:00,66.8,57.5,29.90,North,-999,0.0,0.0,72,0.00,,,-99.99,WeatherLink 5.5,2013-05-21 14:50:00,
2013-05-21 10:55:00,66.8,57.5,29.90,ENE,67,0.0,1.0,72,0.01,,,-99.99,WeatherLink 5.5,2013-05-21 14:55:00,
2013-05-21 11:00:00,66.8,57.5,29.90,ENE,67,0.0,1.0,72,0.01,,,-99.99,WeatherLink 5.5,2013-05-21 15:00:00,
2013-05-21 11:05:00,67.5,59.7,29.89,North,-999,0.0,0.0,76,0.01,,,-99.99,WeatherLink 5.5,2013-05-21 15:05:00,
2013-05-21 11:10:00,67.5,58.9,29.89,ENE,67,0.0,1.0,74,0.01,,,-99.99,WeatherLink 5.5,2013-05-21 15:10:00,
2013-05-21 11:15:00,67.5,58.9,29.89,ENE,67,0.0,1.0,74,0.01,,,-99.99,WeatherLink 5.5,2013-05-21 15:15:00,
2013-05-21 11:20:00,67.3,58.7,29.89,ENE,67,1.0,6.0,74,0.01,,,-99.99,WeatherLink 5.5,2013-05-21 15:20:00,
2013-05-21 11:25:00,67.8,60.0,29.89,ENE,67,0.0,1.0,76,0.01,,,-99.99,WeatherLink 5.5,2013-05-21 15:25:00,
2013-05-21 11:30:00,67.8,60.0,29.89,ENE,67,0.0,1.0,76,0.01,,,-99.99,WeatherLink 5.5,2013-05-21 15:30:00,
2013-05-21 11:35:00,68.0,58.6,29.87,ENE,67,1.0,8.0,72,0.01,,,-99.99,WeatherLink 5.5,2013-05-21 15:35:00,
2013-05-21 11:40:00,68.3,58.1,29.87,NE,45,1.0,6.0,70,0.01,,,-99.99,WeatherLink 5.5,2013-05-21 15:40:00,
2013-05-21 11:45:00,68.3,58.1,29.87,NE,45,1.0,6.0,70,0.01,,,-99.99,WeatherLink 5.5,2013-05-21 15:45:00,
2013-05-21 11:50:00,69.1,58.9,29.86,ENE,67,1.0,6.0,70,0.01,,,-99.99,WeatherLink 5.5,2013-05-21 15:50:00,
2013-05-21 11:55:00,69.8,59.2,29.86,NE,45,0.0,1.0,69,0.00,,,-99.99,WeatherLink 5.5,2013-05-21 15:55:00,
2013-05-21 12:00:00,69.8,59.2,29.86,NE,45,0.0,1.0,69,0.00,,,-99.99,WeatherLink 5.5,2013-05-21 16:00:00,
2013-05-21 12:05:00,71.0,59.9,29.86,NE,45,1.0,6.0,68,0.00,,,-99.99,WeatherLink 5.5,2013-05-21 16:05:00,
2013-05-21 12:10:00,71.2,59.3,29.86,ENE,67,2.0,7.0,66,0.00,,,-99.99,WeatherLink 5.5,2013-05-21 16:10:00,
2013-05-21 12:15:00,71.2,59.3,29.86,ENE,67,2.0,7.0,66,0.00,,,-99.99,WeatherLink 5.5,2013-05-21 16:15:00,
2013-05-21 12:20:00,71.7,59.3,29.85,NE,45,0.0,6.0,65,0.00,,,-99.99,WeatherLink 5.5,2013-05-21 16:20:00,
2013-05-21 12:25:00,72.5,59.6,29.85,NE,45,0.0,4.0,64,0.00,,,-99.99,WeatherLink 5.5,2013-05-21 16:25:00,
2013-05-21 12:30:00,72.5,59.6,29.85,NE,45,0.0,4.0,64,0.00,,,-99.99,WeatherLink 5.5,2013-05-21 16:30:00,
2013-05-21 12:35:00,73.2,59.4,29.85,NE,45,1.0,6.0,62,0.00,,,-99.99,WeatherLink 5.5,2013-05-21 16:35:00,
2013-05-21 12:40:00,73.6,59.3,29.85,NE,45,0.0,1.0,61,0.00,,,-99.99,WeatherLink 5.5,2013-05-21 16:40:00,
2013-05-21 12:45:00,73.6,59.3,29.85,NE,45,0.0,1.0,61,0.00,,,-99.99,WeatherLink 5.5,2013-05-21 16:45:00,
2013-05-21 12:50:00,74.1,59.8,29.84,NE,45,0.0,4.0,61,0.00,,,-99.99,WeatherLink 5.5,2013-05-21 16:50:00,
2013-05-21 12:55:00,74.8,60.0,29.84,NE,45,0.0,1.0,60,0.00,,,-99.99,WeatherLink 5.5,2013-05-21 16:55:00,
2013-05-21 13:00:00,74.8,60.0,29.84,NE,45,0.0,1.0,60,0.00,,,-99.99,WeatherLink 5.5,2013-05-21 17:00:00,
2013-05-21 13:05:00,75.1,59.8,29.84,NNE,22,2.0,9.0,59,0.00,,,-99.99,WeatherLink 5.5,2013-05-21 17:05:00,
2013-05-21 13:10:00,75.5,59.2,29.84,ENE,67,2.0,7.0,57,0.00,,,-99.99,WeatherLink 5.5,2013-05-21 17:10:00,
2013-05-21 13:15:00,75.5,59.2,29.84,ENE,67,2.0,7.0,57,0.00,,,-99.99,WeatherLink 5.5,2013-05-21 17:15:00,
2013-05-21 13:20:00,76.9,60.5,29.84,ENE,67,0.0,1.0,57,0.00,,,-99.99,WeatherLink 5.5,2013-05-21 17:20:00,
2013-05-21 13:25:00,77.3,59.9,29.84,ENE,67,0.0,4.0,55,0.00,,,-99.99,WeatherLink 5.5,2013-05-21 17:25:00,
2013-05-21 13:30:00,77.3,59.9,29.84,ENE,67,0.0,4.0,55,0.00,,,-99.99,WeatherLink 5.5,2013-05-21 17:30:00,
2013-05-21 13:35:00,77.1,59.7,29.84,ENE,67,1.0,8.0,55,0.00,,,-99.99,WeatherLink 5.5,2013-05-21 17:35:00,
2013-05-21 13:40:00,76.9,60.5,29.84,NE,45,3.0,9.0,57,0.00,,,-99.99,WeatherLink 5.5,2013-05-21 17:40:00,
2013-05-21 13:45:00,76.9,60.5,29.84,NE,45,3.0,9.0,57,0.00,,,-99.99,WeatherLink 5.5,2013-05-21 17:45:00,
2013-05-21 13:50:00,77.6,60.2,29.84,NNE,22,2.0,8.0,55,0.00,,,-99.99,WeatherLink 5.5,2013-05-21 17:50:00,
2013-05-21 13:55:00,77.8,59.8,29.84,NE,45,1.0,9.0,54,0.00,,,-99.99,WeatherLink 5.5,2013-05-21 17:55:00,
2013-05-21 14:00:00,77.8,59.8,29.84,NE,45,1.0,9.0,54,0.00,,,-99.99,WeatherLink 5.5,2013-05-21 18:00:00,
2013-05-21 14:05:00,76.4,60.0,29.84,ENE,67,4.0,11.0,57,0.00,,,-99.99,WeatherLink 5.5,2013-05-21 18:05:00,
2013-05-21 14:10:00,76.4,59.5,29.84,NE,45,2.0,8.0,56,0.00,,,-99.99,WeatherLink 5.5,2013-05-21 18:10:00,
2013-05-21 14:15:00,76.4,59.5,29.84,NE,45,2.0,8.0,56,0.00,,,-99.99,WeatherLink 5.5,2013-05-21 18:15:00,
2013-05-21 14:20:00,76.5,59.6,29.84,NE,45,2.0,7.0,56,0.00,,,-99.99,WeatherLink 5.5,2013-05-21 18:20:00,
2013-05-21 14:25:00,75.7,59.4,29.84,NE,45,4.0,10.0,57,0.00,,,-99.99,WeatherLink 5.5,2013-05-21 18:25:00,
2013-05-21 14:30:00,75.7,59.4,29.84,NE,45,4.0,10.0,57,0.00,,,-99.99,WeatherLink 5.5,2013-05-21 18:30:00,
2013-05-21 14:35:00,73.6,57.9,29.85,ENE,67,5.0,15.0,58,0.00,,,-99.99,WeatherLink 5.5,2013-05-21 18:35:00,
2013-05-21 14:40:00,73.0,57.8,29.85,NNE,22,2.0,10.0,59,0.00,,,-99.99,WeatherLink 5.5,2013-05-21 18:40:00,
2013-05-21 14:45:00,73.0,57.8,29.85,NNE,22,2.0,10.0,59,0.00,,,-99.99,WeatherLink 5.5,2013-05-21 18:45:00,
2013-05-21 14:50:00,71.0,56.4,29.85,ENE,67,5.0,13.0,60,0.00,,,-99.99,WeatherLink 5.5,2013-05-21 18:50:00,
2013-05-21 14:55:00,69.8,56.2,29.85,NE,45,6.0,11.0,62,0.00,,,-99.99,WeatherLink 5.5,2013-05-21 18:55:00,
2013-05-21 15:00:00,69.8,56.2,29.85,NE,45,6.0,11.0,62,0.00,,,-99.99,WeatherLink 5.5,2013-05-21 19:00:00,
2013-05-21 15:05:00,69.5,55.9,29.86,ENE,67,4.0,13.0,62,0.00,,,-99.99,WeatherLink 5.5,2013-05-21 19:05:00,
2013-05-21 15:10:00,68.6,55.9,29.86,NE,45,7.0,16.0,64,0.00,,,-99.99,WeatherLink 5.5,2013-05-21 19:10:00,
2013-05-21 15:15:00,68.6,55.9,29.86,NE,45,7.0,16.0,64,0.00,,,-99.99,WeatherLink 5.5,2013-05-21 19:15:00,
2013-05-21 15:20:00,68.6,54.2,29.86,NNE,22,4.0,13.0,60,0.00,,,-99.99,WeatherLink 5.5,2013-05-21 19:20:00,
2013-05-21 15:25:00,67.3,54.7,29.86,ENE,67,5.0,13.0,64,0.00,,,-99.99,WeatherLink 5.5,2013-05-21 19:25:00,
2013-05-21 15:30:00,67.3,54.7,29.86,ENE,67,5.0,13.0,64,0.00,,,-99.99,WeatherLink 5.5,2013-05-21 19:30:00,
2013-05-21 15:35:00,67.5,54.9,29.87,ENE,67,3.0,9.0,64,0.00,,,-99.99,WeatherLink 5.5,2013-05-21 19:35:00,
2013-05-21 15:40:00,67.5,54.0,29.87,ENE,67,3.0,16.0,62,0.00,,,-99.99,WeatherLink 5.5,2013-05-21 19:40:00,
2013-05-21 15:45:00,67.5,54.0,29.87,ENE,67,3.0,16.0,62,0.00,,,-99.99,WeatherLink 5.5,2013-05-21 19:45:00,
2013-05-21 15:50:00,67.8,53.9,29.87,ENE,67,1.0,9.0,61,0.00,,,-99.99,WeatherLink 5.5,2013-05-21 19:50:00,
2013-05-21 15:55:00,67.5,54.0,29.87,ENE,67,4.0,13.0,62,0.00,,,-99.99,WeatherLink 5.5,2013-05-21 19:55:00,
2013-05-21 16:00:00,67.5,54.0,29.87,ENE,67,4.0,13.0,62,0.00,,,-99.99,WeatherLink 5.5,2013-05-21 20:00:00,
2013-05-21 16:05:00,66.8,52.9,29.87,NNE,22,4.0,11.0,61,0.00,,,-99.99,WeatherLink 5.5,2013-05-21 20:05:00,
2013-05-21 16:10:00,66.3,52.0,29.87,NE,45,4.0,11.0,60,0.00,,,-99.99,WeatherLink 5.5,2013-05-21 20:10:00,
2013-05-21 16:15:00,66.3,52.0,29.87,NE,45,4.0,11.0,60,0.00,,,-99.99,WeatherLink 5.5,2013-05-21 20:15:00,
2013-05-21 16:20:00,64.5,51.6,29.87,NE,45,7.0,14.0,63,0.00,,,-99.99,WeatherLink 5.5,2013-05-21 20:20:00,
2013-05-21 16:25:00,63.4,51.0,29.87,ENE,67,6.0,15.0,64,0.00,,,-99.99,WeatherLink 5.5,2013-05-21 20:25:00,
2013-05-21 16:30:00,63.4,51.0,29.87,ENE,67,6.0,15.0,64,0.00,,,-99.99,WeatherLink 5.5,2013-05-21 20:30:00,
2013-05-21 16:35:00,61.2,49.7,29.88,NE,45,7.0,13.0,66,0.00,,,-99.99,WeatherLink 5.5,2013-05-21 20:35:00,
2013-05-21 16:40:00,60.6,49.6,29.88,ENE,67,6.0,13.0,67,0.00,,,-99.99,WeatherLink 5.5,2013-05-21 20:40:00,
2013-05-21 16:45:00,60.6,49.6,29.88,ENE,67,6.0,13.0,67,0.00,,,-99.99,WeatherLink 5.5,2013-05-21 20:45:00,
2013-05-21 16:50:00,59.5,49.3,29.89,NE,45,3.0,9.0,69,0.00,,,-99.99,WeatherLink 5.5,2013-05-21 20:50:00,
2013-05-21 16:55:00,59.5,49.3,29.89,NE,45,2.0,9.0,69,0.00,,,-99.99,WeatherLink 5.5,2013-05-21 20:55:00,
2013-05-21 17:00:00,59.5,49.3,29.89,NE,45,2.0,9.0,69,0.00,,,-99.99,WeatherLink 5.5,2013-05-21 21:00:00,
2013-05-21 17:05:00,57.8,48.5,29.91,ENE,67,5.0,13.0,71,0.00,,,-99.99,WeatherLink 5.5,2013-05-21 21:05:00,
2013-05-21 17:10:00,57.0,48.1,29.91,ENE,67,5.0,14.0,72,0.00,,,-99.99,WeatherLink 5.5,2013-05-21 21:10:00,
2013-05-21 17:15:00,57.0,48.1,29.91,ENE,67,5.0,14.0,72,0.00,,,-99.99,WeatherLink 5.5,2013-05-21 21:15:00,
2013-05-21 17:20:00,56.3,47.8,29.90,ENE,67,4.0,10.0,73,0.00,,,-99.99,WeatherLink 5.5,2013-05-21 21:20:00,
2013-05-21 17:25:00,56.0,47.5,29.90,NE,45,3.0,13.0,73,0.00,,,-99.99,WeatherLink 5.5,2013-05-21 21:25:00,
2013-05-21 17:30:00,56.0,47.5,29.90,NE,45,3.0,13.0,73,0.00,,,-99.99,WeatherLink 5.5,2013-05-21 21:30:00,
2013-05-21 17:35:00,55.4,47.2,29.91,ENE,67,2.0,8.0,74,0.00,,,-99.99,WeatherLink 5.5,2013-05-21 21:35:00,
2013-05-21 17:40:00,55.1,47.0,29.91,NE,45,3.0,14.0,74,0.00,,,-99.99,WeatherLink 5.5,2013-05-21 21:40:00,
2013-05-21 17:45:00,55.1,47.0,29.91,NE,45,3.0,14.0,74,0.00,,,-99.99,WeatherLink 5.5,2013-05-21 21:45:00,
2013-05-21 17:50:00,55.0,47.2,29.92,ENE,67,2.0,10.0,75,0.00,,,-99.99,WeatherLink 5.5,2013-05-21 21:50:00,
2013-05-21 17:55:00,55.0,46.9,29.92,ENE,67,2.0,9.0,74,0.00,,,-99.99,WeatherLink 5.5,2013-05-21 21:55:00,
2013-05-21 18:00:00,55.0,46.9,29.92,ENE,67,2.0,9.0,74,0.00,,,-99.99,WeatherLink 5.5,2013-05-21 22:00:00,
2013-05-21 18:05:00,54.4,46.6,29.94,NNE,22,1.0,4.0,75,0.00,,,-99.99,WeatherLink 5.5,2013-05-21 22:05:00,
2013-05-21 18:10:00,54.1,46.3,29.94,NNE,22,3.0,9.0,75,0.00,,,-99.99,WeatherLink 5.5,2013-05-21 22:10:00,
2013-05-21 18:15:00,54.1,46.3,29.94,NNE,22,3.0,9.0,75,0.00,,,-99.99,WeatherLink 5.5,2013-05-21 22:15:00,
2013-05-21 18:20:00,53.6,46.2,29.95,ENE,67,2.0,8.0,76,0.00,,,-99.99,WeatherLink 5.5,2013-05-21 22:20:00,
2013-05-21 18:25:00,53.5,46.1,29.95,ENE,67,2.0,8.0,76,0.00,,,-99.99,WeatherLink 5.5,2013-05-21 22:25:00,
2013-05-21 18:30:00,53.5,46.1,29.95,ENE,67,2.0,8.0,76,0.00,,,-99.99,WeatherLink 5.5,2013-05-21 22:30:00,
2013-05-21 18:35:00,53.0,46.0,29.96,NNE,22,2.0,7.0,77,0.00,,,-99.99,WeatherLink 5.5,2013-05-21 22:35:00,
2013-05-21 18:40:00,53.0,46.0,29.96,ENE,67,1.0,7.0,77,0.00,,,-99.99,WeatherLink 5.5,2013-05-21 22:40:00,
2013-05-21 18:45:00,53.0,46.0,29.96,ENE,67,1.0,7.0,77,0.00,,,-99.99,WeatherLink 5.5,2013-05-21 22:45:00,
2013-05-21 18:50:00,53.0,46.0,29.97,NE,45,1.0,4.0,77,0.00,,,-99.99,WeatherLink 5.5,2013-05-21 22:50:00,
2013-05-21 18:55:00,52.9,45.9,29.97,ENE,67,2.0,8.0,77,0.00,,,-99.99,WeatherLink 5.5,2013-05-21 22:55:00,
2013-05-21 19:00:00,52.9,45.9,29.97,ENE,67,2.0,8.0,77,0.00,,,-99.99,WeatherLink 5.5,2013-05-21 23:00:00,
2013-05-21 19:05:00,52.6,45.6,29.97,NE,45,2.0,6.0,77,0.00,,,-99.99,WeatherLink 5.5,2013-05-21 23:05:00,
2013-05-21 19:10:00,52.6,45.6,29.97,ENE,67,1.0,6.0,77,0.00,,,-99.99,WeatherLink 5.5,2013-05-21 23:10:00,
2013-05-21 19:15:00,52.6,45.6,29.97,ENE,67,1.0,6.0,77,0.00,,,-99.99,WeatherLink 5.5,2013-05-21 23:15:00,
2013-05-21 19:20:00,52.2,45.5,29.97,ENE,67,4.0,9.0,78,0.00,,,-99.99,WeatherLink 5.5,2013-05-21 23:20:00,
2013-05-21 19:25:00,52.3,45.6,29.97,NNE,22,0.0,4.0,78,0.00,,,-99.99,WeatherLink 5.5,2013-05-21 23:25:00,
2013-05-21 19:30:00,52.3,45.6,29.97,NNE,22,0.0,4.0,78,0.00,,,-99.99,WeatherLink 5.5,2013-05-21 23:30:00,
2013-05-21 19:35:00,52.0,45.7,29.97,NNE,22,2.0,7.0,79,0.00,,,-99.99,WeatherLink 5.5,2013-05-21 23:35:00,
2013-05-21 19:40:00,52.0,45.7,29.97,NE,45,3.0,11.0,79,0.00,,,-99.99,WeatherLink 5.5,2013-05-21 23:40:00,
2013-05-21 19:45:00,52.0,45.7,29.97,NE,45,3.0,11.0,79,0.00,,,-99.99,WeatherLink 5.5,2013-05-21 23:45:00,
2013-05-21 19:50:00,51.7,45.7,29.95,NNE,22,1.0,4.0,80,0.00,,,-99.99,WeatherLink 5.5,2013-05-21 23:50:00,
2013-05-21 19:55:00,51.6,45.3,29.95,ENE,67,1.0,7.0,79,0.00,,,-99.99,WeatherLink 5.5,2013-05-21 23:55:00,
2013-05-21 20:00:00,51.6,45.3,29.95,ENE,67,1.0,7.0,79,0.00,,,-99.99,WeatherLink 5.5,2013-05-22 00:00:00,
2013-05-21 20:05:00,51.4,45.1,29.97,ENE,67,2.0,9.0,79,0.00,,,-99.99,WeatherLink 5.5,2013-05-22 00:05:00,
2013-05-21 20:10:00,51.4,45.1,29.97,NE,45,1.0,6.0,79,0.00,,,-99.99,WeatherLink 5.5,2013-05-22 00:10:00,
2013-05-21 20:15:00,51.4,45.1,29.97,NE,45,1.0,6.0,79,0.00,,,-99.99,WeatherLink 5.5,2013-05-22 00:15:00,
2013-05-21 20:20:00,51.4,45.1,29.96,NE,45,1.0,7.0,79,0.00,,,-99.99,WeatherLink 5.5,2013-05-22 00:20:00,
2013-05-21 20:25:00,51.3,45.0,29.96,ENE,67,2.0,8.0,79,0.00,,,-99.99,WeatherLink 5.5,2013-05-22 00:25:00,
2013-05-21 20:30:00,51.3,45.0,29.96,ENE,67,2.0,8.0,79,0.00,,,-99.99,WeatherLink 5.5,2013-05-22 00:30:00,
2013-05-21 20:35:00,51.4,45.1,29.97,ENE,67,0.0,1.0,79,0.00,,,-99.99,WeatherLink 5.5,2013-05-22 00:35:00,
2013-05-21 20:40:00,51.4,45.1,29.97,ENE,67,0.0,1.0,79,0.00,,,-99.99,WeatherLink 5.5,2013-05-22 00:40:00,
2013-05-21 20:45:00,51.4,45.1,29.97,ENE,67,0.0,1.0,79,0.00,,,-99.99,WeatherLink 5.5,2013-05-22 00:45:00,
2013-05-21 20:50:00,51.4,44.8,29.98,ENE,67,1.0,6.0,78,0.00,,,-99.99,WeatherLink 5.5,2013-05-22 00:50:00,
2013-05-21 20:55:00,51.4,44.8,29.98,NE,45,1.0,6.0,78,0.00,,,-99.99,WeatherLink 5.5,2013-05-22 00:55:00,
2013-05-21 21:00:00,51.4,44.8,29.98,NE,45,1.0,6.0,78,0.00,,,-99.99,WeatherLink 5.5,2013-05-22 01:00:00,
2013-05-21 21:05:00,51.4,44.8,29.96,NE,45,1.0,8.0,78,0.00,,,-99.99,WeatherLink 5.5,2013-05-22 01:05:00,
2013-05-21 21:10:00,51.3,44.7,29.96,ENE,67,2.0,7.0,78,0.00,,,-99.99,WeatherLink 5.5,2013-05-22 01:10:00,
2013-05-21 21:15:00,51.3,44.7,29.96,ENE,67,2.0,7.0,78,0.00,,,-99.99,WeatherLink 5.5,2013-05-22 01:15:00,
2013-05-21 21:20:00,51.1,44.5,29.95,ENE,67,2.0,7.0,78,0.00,,,-99.99,WeatherLink 5.5,2013-05-22 01:20:00,
2013-05-21 21:25:00,51.1,44.5,29.95,NNE,22,1.0,8.0,78,0.00,,,-99.99,WeatherLink 5.5,2013-05-22 01:25:00,
2013-05-21 21:30:00,51.1,44.5,29.95,NNE,22,1.0,8.0,78,0.00,,,-99.99,WeatherLink 5.5,2013-05-22 01:30:00,
2013-05-21 21:35:00,51.0,44.7,29.95,NE,45,0.0,7.0,79,0.00,,,-99.99,WeatherLink 5.5,2013-05-22 01:35:00,
2013-05-21 21:40:00,50.8,44.2,29.95,NE,45,2.0,9.0,78,0.00,,,-99.99,WeatherLink 5.5,2013-05-22 01:40:00,
2013-05-21 21:45:00,50.8,44.2,29.95,NE,45,2.0,9.0,78,0.00,,,-99.99,WeatherLink 5.5,2013-05-22 01:45:00,
2013-05-21 21:50:00,50.8,44.2,29.96,East,90,0.0,2.0,78,0.00,,,-99.99,WeatherLink 5.5,2013-05-22 01:50:00,
2013-05-21 21:55:00,50.8,44.2,29.96,NE,45,0.0,2.0,78,0.00,,,-99.99,WeatherLink 5.5,2013-05-22 01:55:00,
2013-05-21 22:00:00,50.8,44.2,29.96,NE,45,0.0,2.0,78,0.00,,,-99.99,WeatherLink 5.5,2013-05-22 02:00:00,
2013-05-21 22:05:00,51.0,44.4,29.97,WSW,247,0.0,1.0,78,0.00,,,-99.99,WeatherLink 5.5,2013-05-22 02:05:00,
2013-05-21 22:10:00,51.0,44.4,29.97,North,0,0.0,2.0,78,0.00,,,-99.99,WeatherLink 5.5,2013-05-22 02:10:00,
2013-05-21 22:15:00,51.0,44.4,29.97,North,0,0.0,2.0,78,0.00,,,-99.99,WeatherLink 5.5,2013-05-22 02:15:00,
2013-05-21 22:20:00,50.7,44.1,29.96,ENE,67,2.0,8.0,78,0.00,,,-99.99,WeatherLink 5.5,2013-05-22 02:20:00,
2013-05-21 22:25:00,50.4,44.1,29.96,ENE,67,3.0,9.0,79,0.00,,,-99.99,WeatherLink 5.5,2013-05-22 02:25:00,
2013-05-21 22:30:00,50.4,44.1,29.96,ENE,67,3.0,9.0,79,0.00,,,-99.99,WeatherLink 5.5,2013-05-22 02:30:00,
2013-05-21 22:35:00,50.2,44.3,29.93,ENE,67,2.0,6.0,80,0.00,,,-99.99,WeatherLink 5.5,2013-05-22 02:35:00,
2013-05-21 22:40:00,50.1,44.5,29.93,ENE,67,2.0,8.0,81,0.00,,,-99.99,WeatherLink 5.5,2013-05-22 02:40:00,
2013-05-21 22:45:00,50.1,44.5,29.93,ENE,67,2.0,8.0,81,0.00,,,-99.99,WeatherLink 5.5,2013-05-22 02:45:00,
2013-05-21 22:50:00,50.4,45.1,29.95,North,-999,0.0,0.0,82,0.00,,,-99.99,WeatherLink 5.5,2013-05-22 02:50:00,
2013-05-21 22:55:00,50.4,44.8,29.95,NNE,22,0.0,6.0,81,0.00,,,-99.99,WeatherLink 5.5,2013-05-22 02:55:00,
2013-05-21 23:00:00,50.4,44.8,29.95,NNE,22,0.0,6.0,81,0.00,,,-99.99,WeatherLink 5.5,2013-05-22 03:00:00,
2013-05-21 23:05:00,50.2,44.9,29.97,NE,45,0.0,2.0,82,0.00,,,-99.99,WeatherLink 5.5,2013-05-22 03:05:00,
2013-05-21 23:10:00,50.2,44.9,29.97,North,-999,0.0,0.0,82,0.00,,,-99.99,WeatherLink 5.5,2013-05-22 03:10:00,
2013-05-21 23:15:00,50.2,44.9,29.97,North,-999,0.0,0.0,82,0.00,,,-99.99,WeatherLink 5.5,2013-05-22 03:15:00,
2013-05-21 23:20:00,50.5,45.2,29.98,NNW,337,0.0,6.0,82,0.00,,,-99.99,WeatherLink 5.5,2013-05-22 03:20:00,
2013-05-21 23:25:00,50.5,45.2,29.98,WSW,247,1.0,7.0,82,0.00,,,-99.99,WeatherLink 5.5,2013-05-22 03:25:00,
2013-05-21 23:30:00,50.5,45.2,29.98,WSW,247,1.0,7.0,82,0.00,,,-99.99,WeatherLink 5.5,2013-05-22 03:30:00,
2013-05-21 23:35:00,50.4,45.1,29.99,SSW,202,1.0,4.0,82,0.00,,,-99.99,WeatherLink 5.5,2013-05-22 03:35:00,
2013-05-21 23:40:00,50.2,44.9,29.99,East,90,1.0,7.0,82,0.00,,,-99.99,WeatherLink 5.5,2013-05-22 03:40:00,
2013-05-21 23:45:00,50.2,44.9,29.99,East,90,1.0,7.0,82,0.00,,,-99.99,WeatherLink 5.5,2013-05-22 03:45:00,
2013-05-21 23:50:00,50.1,44.8,29.99,ENE,67,1.0,9.0,82,0.00,,,-99.99,WeatherLink 5.5,2013-05-22 03:50:00,
2013-05-21 23:55:00,49.9,44.9,29.99,ENE,67,0.0,4.0,83,0.00,,,-99.99,WeatherLink 5.5,2013-05-22 03:55:00,